Time;durP1;ratioP1;P1;durP2;ratioP2;P2;SDS_P1;SDS_P2;PMS_P1;PMS_P2;Temp;Humidity;BMP_temperature;BMP_pressure;BME280_temperature;BME280_humidity;BME280_pressure;Samples;Min_cycle;Max_cycle;Signal;HPM_P1;HPM_P2
2021/05/30 00:01:51;;;;;;;20.35;3.05;;;;;;;15.64;100.00;99425.38;1726615;81;20933;-72
2021/05/30 00:04:18;;;;;;;4.30;2.47;;;;;;;15.61;100.00;99410.11;1724260;81;20941;-66
2021/05/30 00:06:45;;;;;;;4.07;2.40;;;;;;;15.58;100.00;99406.13;1715269;81;20993;-71
2021/05/30 00:09:12;;;;;;;7.03;2.83;;;;;;;15.56;100.00;99407.37;1719834;81;21112;-72
2021/05/30 00:11:39;;;;;;;8.53;2.50;;;;;;;15.55;100.00;99412.36;1716043;81;21004;-73
2021/05/30 00:14:08;;;;;;;5.53;2.30;;;;;;;15.52;100.00;99416.77;1720125;82;20977;-71
2021/05/30 00:16:34;;;;;;;5.77;2.40;;;;;;;15.50;100.00;99421.47;1714893;81;21040;-65
2021/05/30 00:19:02;;;;;;;8.73;2.70;;;;;;;15.48;100.00;99419.06;1696315;83;21157;-72
2021/05/30 00:21:28;;;;;;;8.40;2.33;;;;;;;15.54;100.00;99410.77;1716092;81;21100;-72
2021/05/30 00:23:59;;;;;;;7.20;2.50;;;;;;;15.49;100.00;99409.35;1719566;81;21073;-71
2021/05/30 00:26:26;;;;;;;8.33;2.37;;;;;;;15.48;100.00;99413.02;1717597;81;20933;-66
2021/05/30 00:28:52;;;;;;;11.70;3.50;;;;;;;15.48;100.00;99412.50;1718471;81;20992;-72
2021/05/30 00:31:21;;;;;;;7.93;2.43;;;;;;;15.49;100.00;99418.05;1718658;81;21028;-72
2021/05/30 00:33:48;;;;;;;9.77;3.13;;;;;;;15.49;100.00;99414.11;1683693;83;21096;-70
2021/05/30 00:36:15;;;;;;;10.33;2.60;;;;;;;15.50;100.00;99413.59;1685519;83;20982;-69
2021/05/30 00:38:43;;;;;;;11.10;2.07;;;;;;;15.50;100.00;99413.59;1651007;84;21041;-66
2021/05/30 00:41:10;;;;;;;7.43;2.30;;;;;;;15.48;100.00;99415.64;1713634;81;21131;-71
2021/05/30 00:43:50;;;;;;;8.50;2.20;;;;;;;15.46;100.00;99417.73;1683762;83;21022;-70
2021/05/30 00:46:17;;;;;;;5.57;2.07;;;;;;;15.44;100.00;99417.94;1685035;83;21088;-69
2021/05/30 00:48:44;;;;;;;4.47;2.07;;;;;;;15.42;100.00;99419.20;1685932;83;20987;-71
2021/05/30 00:51:11;;;;;;;7.33;2.00;;;;;;;15.40;100.00;99426.53;1686514;83;21023;-71
2021/05/30 00:53:38;;;;;;;6.90;2.63;;;;;;;15.37;100.00;99421.74;1719478;81;21113;-71
2021/05/30 00:56:07;;;;;;;4.10;2.60;;;;;;;15.33;100.00;99422.20;1685270;83;20970;-71
2021/05/30 00:58:34;;;;;;;4.67;1.70;;;;;;;15.29;100.00;99422.39;1684634;83;21100;-70
2021/05/30 01:01:01;;;;;;;3.90;1.63;;;;;;;15.26;100.00;99426.00;1696077;82;21025;-70
2021/05/30 01:03:27;;;;;;;4.00;1.97;;;;;;;15.22;100.00;99424.88;1693726;83;21099;-70
2021/05/30 01:05:55;;;;;;;3.77;1.83;;;;;;;15.19;100.00;99431.90;1706476;82;20998;-66
2021/05/30 01:08:27;;;;;;;3.73;1.60;;;;;;;15.16;100.00;99431.08;1667765;84;21092;-65
2021/05/30 01:10:59;;;;;;;3.20;1.87;;;;;;;15.13;100.00;99431.02;1673597;84;22263;-69
2021/05/30 01:13:28;;;;;;;4.27;1.50;;;;;;;15.11;100.00;99440.94;1673755;84;21631;-70
2021/05/30 01:15:55;;;;;;;3.17;1.93;;;;;;;15.10;100.00;99449.85;1673327;84;21070;-69
2021/05/30 01:18:25;;;;;;;2.87;1.70;;;;;;;15.10;100.00;99447.23;1671478;84;21646;-70
2021/05/30 01:20:54;;;;;;;2.80;1.90;;;;;;;15.11;100.00;99442.77;1673917;84;21476;-72
2021/05/30 01:23:21;;;;;;;4.77;1.70;;;;;;;15.11;100.00;99444.08;1673320;84;21087;-72
2021/05/30 01:25:48;;;;;;;3.23;1.90;;;;;;;15.12;100.00;99438.62;1671280;84;20938;-69
2021/05/30 01:28:15;;;;;;;2.90;1.87;;;;;;;15.15;100.00;99446.52;1672353;84;21141;-66
2021/05/30 01:30:43;;;;;;;3.93;2.33;;;;;;;15.19;100.00;99451.59;1671887;84;21026;-71
2021/05/30 01:33:09;;;;;;;4.53;2.20;;;;;;;15.22;100.00;99463.73;1673860;84;21109;-70
2021/05/30 01:35:37;;;;;;;4.60;2.20;;;;;;;15.24;100.00;99472.19;1668128;84;21104;-71
2021/05/30 01:38:04;;;;;;;3.70;2.20;;;;;;;15.23;100.00;99479.80;1673083;84;21075;-64
2021/05/30 01:40:30;;;;;;;3.80;2.10;;;;;;;15.21;100.00;99487.09;1671262;84;21571;-69
2021/05/30 01:42:57;;;;;;;3.00;1.90;;;;;;;15.19;100.00;99485.72;1673818;84;21140;-71
2021/05/30 01:45:25;;;;;;;4.93;1.57;;;;;;;15.16;100.00;99483.06;1671263;84;21085;-72
2021/05/30 01:47:52;;;;;;;4.30;2.40;;;;;;;15.14;100.00;99483.80;1673441;83;21125;-68
2021/05/30 01:50:21;;;;;;;8.20;2.47;;;;;;;15.12;100.00;99477.99;1670066;84;21562;-65
2021/05/30 01:52:49;;;;;;;7.00;2.20;;;;;;;15.11;100.00;99487.39;1672603;84;21382;-69
2021/05/30 01:55:41;;;;;;;4.83;3.07;;;;;;;15.08;100.00;99478.17;1672933;84;21029;-70
2021/05/30 01:57:58;;;;;;;3.00;2.42;;;;;;;15.05;100.00;99478.11;1671800;84;25575;-70
2021/05/30 02:00:25;;;;;;;2.83;1.90;;;;;;;15.03;100.00;99470.97;1672503;84;21102;-69
2021/05/30 02:02:54;;;;;;;4.97;2.13;;;;;;;15.03;100.00;99465.72;1673925;84;21180;-71
2021/05/30 02:05:21;;;;;;;2.77;1.97;;;;;;;15.03;100.00;99467.55;1686264;82;20939;-70
2021/05/30 02:07:49;;;;;;;4.13;2.40;;;;;;;15.01;100.00;99457.30;1695383;82;20968;-71
2021/05/30 02:10:18;;;;;;;3.73;2.40;;;;;;;15.03;100.00;99452.59;1695192;82;20971;-66
2021/05/30 02:12:47;;;;;;;4.27;2.23;;;;;;;15.05;100.00;99451.86;1694772;82;21079;-70
2021/05/30 02:15:15;;;;;;;3.60;2.37;;;;;;;15.13;100.00;99453.84;1684369;82;21295;-68
2021/05/30 02:17:42;;;;;;;2.80;2.03;;;;;;;15.27;100.00;99468.31;1696126;82;20918;-71
2021/05/30 02:20:09;;;;;;;3.00;1.80;;;;;;;15.36;100.00;99473.98;1694179;82;21050;-66
2021/05/30 02:22:36;;;;;;;4.23;2.10;;;;;;;15.41;100.00;99472.77;1694963;84;20962;-71
2021/05/30 02:25:05;;;;;;;3.87;2.33;;;;;;;15.45;100.00;99469.43;1695538;82;21471;-71
2021/05/30 02:27:32;;;;;;;4.30;2.27;;;;;;;15.48;100.00;99468.17;1695337;82;21444;-69
2021/05/30 02:29:59;;;;;;;3.90;2.47;;;;;;;15.52;100.00;99462.22;1695624;82;20972;-72
2021/05/30 02:32:26;;;;;;;2.80;1.73;;;;;;;15.56;100.00;99473.05;1694383;82;21576;-69
2021/05/30 02:34:53;;;;;;;4.13;2.30;;;;;;;15.61;100.00;99479.73;1695559;82;21583;-72
2021/05/30 02:37:20;;;;;;;4.77;2.27;;;;;;;15.63;100.00;99484.22;1695712;82;21090;-72
2021/05/30 02:39:47;;;;;;;4.17;2.40;;;;;;;15.66;100.00;99492.98;1695929;82;21571;-72
2021/05/30 02:42:14;;;;;;;10.73;3.43;;;;;;;15.66;100.00;99492.98;1695000;82;21046;-69
2021/05/30 02:44:41;;;;;;;4.93;2.53;;;;;;;15.64;100.00;99501.57;1695025;82;21561;-70
2021/05/30 02:47:09;;;;;;;9.37;2.80;;;;;;;15.59;100.00;99505.42;1694626;82;21596;-71
2021/05/30 02:49:37;;;;;;;9.87;3.07;;;;;;;15.55;100.00;99514.28;1696049;82;22140;-72
2021/05/30 02:52:05;;;;;;;11.03;2.87;;;;;;;15.51;100.00;99509.22;1694725;82;21726;-69
2021/05/30 02:54:32;;;;;;;14.13;4.10;;;;;;;15.46;100.00;99501.77;1695447;82;20867;-64
2021/05/30 02:57:00;;;;;;;15.47;3.87;;;;;;;15.43;100.00;99507.48;1694698;82;21116;-73
2021/05/30 02:59:27;;;;;;;9.83;2.87;;;;;;;15.44;100.00;99515.64;1695889;82;21041;-72
2021/05/30 03:01:53;;;;;;;10.33;2.40;;;;;;;15.47;100.00;99519.12;1720195;78;21707;-71
2021/05/30 03:04:20;;;;;;;5.47;2.70;;;;;;;15.51;100.00;99524.98;1766589;80;21093;-66
2021/05/30 03:06:47;;;;;;;9.30;3.10;;;;;;;15.55;100.00;99519.54;1758507;79;21496;-71
2021/05/30 03:09:13;;;;;;;5.20;2.57;;;;;;;15.63;100.00;99519.69;1765688;80;21328;-72
2021/05/30 03:11:42;;;;;;;6.23;2.77;;;;;;;15.72;100.00;99522.76;1774991;79;20983;-72
2021/05/30 03:14:09;;;;;;;5.93;2.83;;;;;;;15.79;100.00;99525.53;1753458;80;22217;-65
2021/05/30 03:16:35;;;;;;;4.67;2.37;;;;;;;15.86;100.00;99525.39;1747524;79;21571;-71
2021/05/30 03:19:02;;;;;;;5.30;2.60;;;;;;;15.93;100.00;99527.36;1756545;79;21098;-72
2021/05/30 03:21:29;;;;;;;6.97;2.97;;;;;;;16.00;100.00;99525.91;1763391;79;21055;-73
2021/05/30 03:23:56;;;;;;;5.50;3.13;;;;;;;16.08;100.00;99520.27;1738306;80;21582;-73
2021/05/30 03:26:22;;;;;;;6.70;2.80;;;;;;;16.19;100.00;99519.92;1765953;80;21095;-71
2021/05/30 03:28:50;;;;;;;5.77;3.00;;;;;;;16.28;100.00;99520.59;1754903;79;20911;-65
2021/05/30 03:31:16;;;;;;;5.20;3.17;;;;;;;16.38;100.00;99515.23;1766269;80;20907;-72
2021/05/30 03:33:43;;;;;;;5.50;2.60;;;;;;;16.47;100.00;99515.11;1757220;80;20931;-72
2021/05/30 03:36:14;;;;;;;3.47;2.50;;;;;;;16.56;100.00;99511.05;1766019;80;21553;-72
2021/05/30 03:38:38;;;;;;;3.90;2.37;;;;;;;16.65;100.00;99508.28;1756065;79;21060;-73
2021/05/30 03:41:06;;;;;;;3.63;2.23;;;;;;;16.76;100.00;99506.11;1765279;80;21021;-66
2021/05/30 03:43:34;;;;;;;5.43;2.60;;;;;;;16.89;100.00;99504.16;1764110;80;21284;-73
2021/05/30 03:46:00;;;;;;;5.30;2.40;;;;;;;17.01;100.00;99508.30;1748088;80;20916;-72
2021/05/30 03:48:27;;;;;;;3.97;2.33;;;;;;;17.12;100.00;99509.23;1764632;79;21529;-73
2021/05/30 03:50:54;;;;;;;4.30;2.10;;;;;;;17.21;100.00;99505.65;1762716;80;21564;-66
2021/05/30 03:53:21;;;;;;;4.23;2.10;;;;;;;17.30;100.00;99501.53;1754715;79;21083;-74
2021/05/30 03:55:48;;;;;;;5.00;2.43;;;;;;;17.38;100.00;99510.84;1753930;79;21595;-74
2021/05/30 03:58:15;;;;;;;4.13;2.30;;;;;;;17.46;100.00;99509.09;1758775;79;21532;-75
2021/05/30 04:00:42;;;;;;;3.13;2.30;;;;;;;17.52;100.00;99510.75;1754060;80;21094;-74
2021/05/30 04:03:09;;;;;;;3.60;2.60;;;;;;;17.55;100.00;99508.95;1786055;79;21107;-69
2021/05/30 04:05:36;;;;;;;4.40;2.60;;;;;;;17.56;100.00;99503.95;1787445;79;22375;-73
2021/05/30 04:08:04;;;;;;;3.80;2.50;;;;;;;17.59;100.00;99504.77;1783614;79;20953;-65
2021/05/30 04:10:31;;;;;;;3.17;2.23;;;;;;;17.65;100.00;99511.70;1786645;79;21156;-72
2021/05/30 04:12:58;;;;;;;2.63;2.00;;;;;;;17.72;100.00;99512.28;1785691;79;20898;-75
2021/05/30 04:15:26;;;;;;;3.73;2.43;;;;;;;17.78;100.00;99507.11;1781439;79;20871;-72
2021/05/30 04:17:52;;;;;;;4.03;2.87;;;;;;;17.78;100.00;99501.31;1781668;79;20977;-78
2021/05/30 04:20:21;;;;;;;4.13;2.60;;;;;;;17.78;100.00;99503.16;1785906;79;21100;-75
2021/05/30 04:22:48;;;;;;;3.97;2.70;;;;;;;17.80;100.00;99501.84;1781569;79;21013;-73
2021/05/30 04:25:15;;;;;;;3.70;2.47;;;;;;;17.81;100.00;99503.98;1769121;79;21022;-66
2021/05/30 04:27:43;;;;;;;6.00;2.70;;;;;;;17.83;100.00;99504.52;1779102;79;21045;-65
2021/05/30 04:30:11;;;;;;;4.73;2.97;;;;;;;17.85;100.00;99497.16;1783281;79;21005;-76
2021/05/30 04:32:38;;;;;;;5.10;2.90;;;;;;;17.86;100.00;99498.75;1780200;79;20993;-75
2021/05/30 04:35:06;;;;;;;5.00;3.03;;;;;;;17.93;100.00;99495.39;1777525;79;20972;-77
2021/05/30 04:37:33;;;;;;;5.00;3.00;;;;;;;18.06;100.00;99497.60;1783428;79;20954;-63
2021/05/30 04:40:01;;;;;;;3.87;2.60;;;;;;;18.41;100.00;99494.48;1787829;79;21024;-72
2021/05/30 04:42:28;;;;;;;3.47;2.50;;;;;;;18.79;100.00;99490.50;1786212;79;21559;-75
2021/05/30 04:44:54;;;;;;;3.40;2.47;;;;;;;19.07;100.00;99486.70;1789947;79;21524;-76
2021/05/30 04:47:22;;;;;;;4.17;2.73;;;;;;;19.28;100.00;99484.92;1775102;79;21582;-63
2021/05/30 04:49:49;;;;;;;3.33;2.70;;;;;;;19.58;100.00;99477.61;1789208;79;20957;-74
2021/05/30 04:52:15;;;;;;;4.83;2.83;;;;;;;19.77;100.00;99472.12;1775228;79;21092;-79
2021/05/30 04:54:42;;;;;;;3.33;2.40;;;;;;;19.93;100.00;99479.03;1782550;79;21537;-74
2021/05/30 04:57:08;;;;;;;3.80;2.40;;;;;;;20.30;100.00;99473.20;1767129;79;21014;-73
2021/05/30 04:59:36;;;;;;;3.17;2.20;;;;;;;20.80;100.00;99476.87;1786684;79;21101;-72
2021/05/30 05:02:03;;;;;;;3.23;2.40;;;;;;;21.44;100.00;99472.12;1770658;79;21634;-72
2021/05/30 05:04:30;;;;;;;4.57;2.23;;;;;;;22.24;100.00;99473.72;1786482;79;21217;-71
2021/05/30 05:06:56;;;;;;;5.90;3.07;;;;;;;22.99;100.00;99470.02;1783060;79;21090;-76
2021/05/30 05:09:23;;;;;;;3.90;2.47;;;;;;;23.43;100.00;99470.27;1785585;79;21084;-72
2021/05/30 05:11:50;;;;;;;3.33;2.43;;;;;;;23.86;100.00;99464.09;1789397;79;21540;-61
2021/05/30 05:14:17;;;;;;;4.90;2.57;;;;;;;24.25;100.00;99471.17;1791918;79;21040;-72
2021/05/30 05:16:44;;;;;;;4.28;2.75;;;;;;;24.55;100.00;99471.75;1788009;78;21544;-71
2021/05/30 05:19:11;;;;;;;4.15;2.52;;;;;;;24.67;100.00;99467.27;1790054;79;20962;-71
2021/05/30 05:21:37;;;;;;;3.80;2.72;;;;;;;24.49;100.00;99474.25;1789857;79;20962;-70
2021/05/30 05:24:06;;;;;;;3.00;2.17;;;;;;;24.21;100.00;99478.17;1775684;79;21014;-62
2021/05/30 05:26:33;;;;;;;3.27;2.52;;;;;;;24.17;100.00;99477.69;1781066;79;21691;-71
2021/05/30 05:29:00;;;;;;;3.40;2.25;;;;;;;24.57;100.00;99482.89;1776913;79;21078;-66
2021/05/30 05:31:27;;;;;;;4.62;1.98;;;;;;;25.22;100.00;99487.25;1780168;79;21079;-68
2021/05/30 05:33:55;;;;;;;3.45;2.00;;;;;;;25.85;100.00;99478.41;1776586;78;21476;-62
2021/05/30 05:36:23;;;;;;;2.72;1.70;;;;;;;26.40;100.00;99478.13;1785663;78;21540;-68
2021/05/30 05:38:50;;;;;;;3.30;2.17;;;;;;;26.88;100.00;99472.03;1788516;78;21017;-68
2021/05/30 05:41:17;;;;;;;2.83;1.92;;;;;;;27.09;100.00;99472.81;1788563;79;21089;-67
2021/05/30 05:43:44;;;;;;;3.17;1.80;;;;;;;27.29;100.00;99473.57;1780759;78;20947;-68
2021/05/30 05:46:11;;;;;;;2.70;1.80;;;;;;;27.61;100.00;99468.84;1783402;78;22758;-66
2021/05/30 05:48:38;;;;;;;3.10;1.80;;;;;;;28.00;100.00;99471.15;1769699;79;21527;-69
2021/05/30 05:51:05;;;;;;;2.50;1.65;;;;;;;28.70;100.00;99464.46;1787210;78;21100;-68
2021/05/30 05:53:31;;;;;;;2.47;1.65;;;;;;;29.37;100.00;99464.17;1776572;78;21083;-68
2021/05/30 05:55:58;;;;;;;2.58;1.80;;;;;;;29.58;100.00;99466.30;1788849;78;20926;-62
2021/05/30 05:58:24;;;;;;;2.60;1.70;;;;;;;29.48;100.00;99458.63;1782743;78;21053;-61
2021/05/30 06:00:51;;;;;;;2.40;1.60;;;;;;;29.45;100.00;99461.19;1787305;78;21041;-67
2021/05/30 06:03:18;;;;;;;2.70;1.32;;;;;;;29.60;100.00;99452.55;1769552;80;21494;-68
2021/05/30 06:05:44;;;;;;;2.45;1.45;;;;;;;29.99;100.00;99457.16;1765629;80;21073;-68
2021/05/30 06:08:11;;;;;;;2.92;1.25;;;;;;;30.34;93.96;99442.02;1752851;79;20939;-67
2021/05/30 06:10:38;;;;;;;2.45;1.22;;;;;;;30.58;88.20;99442.04;1765824;80;20951;-68
2021/05/30 06:13:11;;;;;;;4.28;1.60;;;;;;;30.77;90.42;99449.57;1766558;80;22159;-67
2021/05/30 06:15:43;;;;;;;2.30;1.42;;;;;;;30.83;82.14;99450.11;1754968;79;21623;-63
2021/05/30 06:18:15;;;;;;;2.17;1.30;;;;;;;30.67;81.65;99457.49;1764789;80;22476;-71
2021/05/30 06:20:40;;;;;;;2.72;1.02;;;;;;;30.87;79.90;99461.77;1763272;80;21600;-67
2021/05/30 06:23:07;;;;;;;1.75;1.20;;;;;;;31.21;74.99;99451.83;1763960;79;22351;-67
2021/05/30 06:25:34;;;;;;;1.90;1.30;;;;;;;31.43;69.69;99456.52;1718437;81;20977;-68
2021/05/30 06:28:01;;;;;;;1.72;1.10;;;;;;;31.40;73.64;99465.28;1767361;79;22060;-66
2021/05/30 06:30:29;;;;;;;3.17;1.55;;;;;;;31.28;74.34;99462.59;1765039;79;21709;-62
2021/05/30 06:32:56;;;;;;;5.20;1.80;;;;;;;30.94;68.69;99460.08;1765772;79;21079;-66
2021/05/30 06:35:23;;;;;;;2.40;1.50;;;;;;;30.25;74.98;99468.44;1766905;79;21602;-64
2021/05/30 06:37:51;;;;;;;1.98;1.50;;;;;;;29.61;81.14;99470.23;1762132;79;21102;-65
2021/05/30 06:40:17;;;;;;;3.08;1.70;;;;;;;29.07;90.10;99467.45;1764444;79;21022;-67
2021/05/30 06:42:44;;;;;;;2.70;1.12;;;;;;;28.82;98.03;99475.28;1759293;79;21130;-66
2021/05/30 06:45:13;;;;;;;1.85;1.47;;;;;;;28.98;96.58;99466.17;1765102;79;21094;-66
2021/05/30 06:47:40;;;;;;;2.70;1.70;;;;;;;29.41;95.17;99471.80;1762194;79;21120;-67
2021/05/30 06:50:07;;;;;;;2.47;1.65;;;;;;;29.90;86.80;99480.66;1748011;79;21671;-70
2021/05/30 06:52:34;;;;;;;1.52;1.15;;;;;;;30.29;79.43;99477.97;1764503;79;21022;-69
2021/05/30 06:55:01;;;;;;;1.90;1.12;;;;;;;30.70;75.05;99481.60;1762964;79;21097;-70
2021/05/30 06:57:27;;;;;;;2.17;1.30;;;;;;;31.14;63.36;99484.49;1765076;79;21050;-70
2021/05/30 06:59:54;;;;;;;2.40;1.37;;;;;;;31.48;60.42;99479.16;1759314;79;21659;-74
2021/05/30 07:02:22;;;;;;;2.25;1.25;;;;;;;31.91;59.89;99481.16;1767647;79;21105;-69
2021/05/30 07:04:48;;;;;;;2.10;1.45;;;;;;;32.16;58.07;99480.47;1778985;79;21346;-71
2021/05/30 07:07:15;;;;;;;1.90;1.20;;;;;;;32.26;57.16;99479.73;1780557;79;21525;-69
2021/05/30 07:09:45;;;;;;;5.33;1.50;;;;;;;32.22;54.72;99481.77;1779425;79;21135;-70
2021/05/30 07:12:11;;;;;;;2.35;1.42;;;;;;;31.97;55.63;99478.98;1773828;79;22161;-66
2021/05/30 07:14:38;;;;;;;2.12;1.20;;;;;;;31.78;57.95;99485.00;1780707;79;21714;-69
2021/05/30 07:17:05;;;;;;;2.45;1.60;;;;;;;31.55;57.46;99490.14;1781788;79;21091;-68
2021/05/30 07:19:31;;;;;;;2.35;1.57;;;;;;;31.17;61.54;99502.66;1780523;79;21125;-62
2021/05/30 07:21:58;;;;;;;2.58;1.30;;;;;;;30.91;63.67;99501.68;1778750;79;21592;-65
2021/05/30 07:24:25;;;;;;;2.42;1.57;;;;;;;30.85;65.72;99497.66;1779175;79;21065;-66
2021/05/30 07:26:51;;;;;;;2.80;1.20;;;;;;;31.02;65.51;99498.75;1781024;79;21136;-69
2021/05/30 07:29:18;;;;;;;3.27;1.67;;;;;;;31.25;66.25;99501.21;1780399;79;20911;-67
2021/05/30 07:31:45;;;;;;;2.55;1.15;;;;;;;31.43;61.22;99494.23;1774894;79;21059;-61
2021/05/30 07:34:12;;;;;;;2.08;1.10;;;;;;;31.53;58.00;99499.14;1777863;79;21038;-68
2021/05/30 07:36:39;;;;;;;1.92;1.47;;;;;;;31.50;54.31;99502.52;1772323;79;20990;-67
2021/05/30 07:39:06;;;;;;;2.98;1.55;;;;;;;31.33;56.56;99506.27;1782831;79;21073;-67
2021/05/30 07:41:34;;;;;;;2.55;1.17;;;;;;;31.28;61.26;99505.68;1779619;79;20906;-61
2021/05/30 07:44:01;;;;;;;2.72;1.20;;;;;;;31.32;56.18;99510.64;1781977;79;21112;-67
2021/05/30 07:46:29;;;;;;;3.98;1.85;;;;;;;31.18;57.71;99517.16;1777359;78;20966;-68
2021/05/30 07:48:58;;;;;;;2.25;1.37;;;;;;;31.00;61.74;99511.78;1774209;79;21045;-66
2021/05/30 07:51:24;;;;;;;2.25;1.25;;;;;;;30.96;64.51;99518.97;1783124;79;20990;-66
2021/05/30 07:53:52;;;;;;;2.83;1.80;;;;;;;30.81;65.03;99523.67;1788429;78;21026;-62
2021/05/30 07:56:19;;;;;;;2.20;1.57;;;;;;;30.67;70.40;99524.75;1774822;79;21096;-67
2021/05/30 07:58:46;;;;;;;2.85;1.50;;;;;;;30.79;71.24;99522.65;1779244;79;20871;-67
2021/05/30 08:01:14;;;;;;;2.85;1.65;;;;;;;30.90;68.83;99521.64;1779711;79;21076;-63
2021/05/30 08:03:40;;;;;;;1.98;1.60;;;;;;;30.88;65.37;99521.22;1769599;80;21046;-67
2021/05/30 08:06:07;;;;;;;2.25;1.40;;;;;;;30.78;65.15;99517.83;1766489;79;21583;-66
2021/05/30 08:08:33;;;;;;;3.10;1.50;;;;;;;30.90;67.62;99517.05;1771302;79;21499;-67
2021/05/30 08:11:01;;;;;;;5.37;1.60;;;;;;;31.19;65.35;99520.63;1766070;79;21019;-62
2021/05/30 08:13:28;;;;;;;3.10;1.20;;;;;;;31.29;64.30;99522.05;1763161;79;21090;-68
2021/05/30 08:15:55;;;;;;;3.00;1.82;;;;;;;31.10;63.35;99522.64;1763455;79;21042;-68
2021/05/30 08:18:22;;;;;;;6.95;1.70;;;;;;;30.57;70.64;99531.12;1768943;79;21137;-67
2021/05/30 08:20:49;;;;;;;2.72;1.47;;;;;;;30.00;75.98;99531.28;1716792;81;22271;-69
2021/05/30 08:23:16;;;;;;;2.75;1.60;;;;;;;29.60;81.70;99524.28;1762651;79;20956;-63
2021/05/30 08:25:43;;;;;;;4.47;1.55;;;;;;;29.54;87.84;99524.99;1764625;79;21169;-63
2021/05/30 08:28:10;;;;;;;3.35;1.45;;;;;;;29.70;87.72;99523.87;1765656;79;21159;-67
2021/05/30 08:30:38;;;;;;;2.52;1.45;;;;;;;29.80;87.76;99532.32;1764849;79;21034;-69
2021/05/30 08:33:06;;;;;;;3.30;1.87;;;;;;;29.86;87.29;99537.52;1763093;79;21741;-61
2021/05/30 08:35:32;;;;;;;6.30;2.60;;;;;;;29.72;84.63;99541.23;1764278;79;21682;-66
2021/05/30 08:38:01;;;;;;;2.50;2.08;;;;;;;29.34;84.98;99541.33;1761997;79;21030;-69
2021/05/30 08:40:27;;;;;;;3.50;1.98;;;;;;;28.82;100.00;99542.34;1767217;79;21082;-69
2021/05/30 08:42:54;;;;;;;2.85;2.35;;;;;;;28.59;100.00;99549.84;1764076;79;21037;-69
2021/05/30 08:45:21;;;;;;;3.33;2.45;;;;;;;28.59;100.00;99549.84;1763037;79;21031;-69
2021/05/30 08:47:48;;;;;;;3.87;2.42;;;;;;;28.31;100.00;99562.82;1769365;79;20999;-62
2021/05/30 08:50:15;;;;;;;2.95;2.22;;;;;;;28.14;100.00;99558.25;1766611;79;21003;-69
2021/05/30 08:52:41;;;;;;;3.27;2.25;;;;;;;28.19;100.00;99553.86;1766457;80;21016;-68
2021/05/30 08:55:10;;;;;;;4.83;2.25;;;;;;;28.50;100.00;99557.69;1719965;81;20994;-61
2021/05/30 08:57:36;;;;;;;2.98;2.10;;;;;;;28.94;100.00;99556.41;1768059;79;21158;-70
2021/05/30 09:00:30;;;;;;;5.60;2.08;;;;;;;29.36;100.00;99555.75;1769446;79;21085;-63
2021/05/30 09:03:16;;;;;;;3.10;2.33;;;;;;;29.80;95.34;99554.38;1717009;81;20984;-69
2021/05/30 09:05:44;;;;;;;3.95;2.40;;;;;;;30.16;87.61;99552.97;1755375;80;21594;-67
2021/05/30 09:08:11;;;;;;;6.90;2.95;;;;;;;30.71;82.77;99563.31;1718214;81;21028;-68
2021/05/30 09:10:38;;;;;;;3.95;2.55;;;;;;;30.71;82.77;99563.31;1698466;81;21113;-65
2021/05/30 09:13:15;;;;;;;5.47;3.72;;;;;;;30.75;82.06;99564.23;1724044;80;20989;-69
2021/05/30 09:18:32;;;;;;;3.70;2.80;;;;;;;30.91;79.81;99563.05;1756471;79;21096;-70
2021/05/30 09:21:09;;;;;;;3.67;2.42;;;;;;;30.84;79.56;99570.07;1752121;80;22193;-69
2021/05/30 09:23:40;;;;;;;4.45;3.02;;;;;;;30.70;80.33;99567.69;1720757;81;21146;-69
2021/05/30 09:26:14;;;;;;;3.98;3.30;;;;;;;30.48;77.42;99574.25;1718985;81;21035;-60
2021/05/30 09:28:44;;;;;;;3.58;2.87;;;;;;;30.00;83.12;99633.40;1755542;80;21101;-70
2021/05/30 09:31:10;;;;;;;5.00;3.13;;;;;;;29.64;92.16;99578.36;1751070;80;21068;-67
2021/05/30 09:33:37;;;;;;;4.25;3.50;;;;;;;29.22;91.08;99598.40;1685762;83;21152;-68
2021/05/30 09:36:04;;;;;;;5.90;3.30;;;;;;;28.57;95.06;99593.63;1757189;80;21250;-62
2021/05/30 09:38:37;;;;;;;5.75;3.42;;;;;;;27.87;100.00;99595.53;1754620;80;21091;-69
2021/05/30 09:41:10;;;;;;;3.60;3.17;;;;;;;27.38;100.00;99593.45;1760480;80;21024;-67
2021/05/30 09:43:52;;;;;;;5.58;3.45;;;;;;;26.80;100.00;99603.83;1751041;80;21324;-67
2021/05/30 09:46:22;;;;;;;3.80;3.42;;;;;;;26.27;100.00;99606.45;1757450;80;21031;-68
2021/05/30 09:48:55;;;;;;;4.15;3.75;;;;;;;25.94;100.00;99606.09;1751010;80;21107;-61
2021/05/30 09:51:40;;;;;;;4.45;3.80;;;;;;;25.85;100.00;99613.80;1720184;81;21326;-70
2021/05/30 09:54:14;;;;;;;5.50;3.83;;;;;;;25.98;100.00;99616.17;1687906;83;21071;-71
2021/05/30 09:56:46;;;;;;;4.80;4.20;;;;;;;26.22;100.00;99616.71;1766293;80;20997;-62
2021/05/30 09:59:17;;;;;;;4.80;4.10;;;;;;;26.53;100.00;99614.68;1747101;80;21242;-67
2021/05/30 10:01:59;;;;;;;4.70;4.30;;;;;;;26.72;100.00;99624.62;1731711;81;22238;-64
2021/05/30 10:04:31;;;;;;;7.60;5.65;;;;;;;26.60;100.00;99634.54;1749922;79;20986;-65
2021/05/30 10:07:00;;;;;;;5.70;4.50;;;;;;;26.25;100.00;99634.78;1766706;79;21397;-65
2021/05/30 10:09:29;;;;;;;6.15;5.55;;;;;;;25.80;100.00;99630.72;1759545;79;20974;-66
2021/05/30 10:11:57;;;;;;;5.53;4.93;;;;;;;25.54;100.00;99633.09;1758379;79;21603;-66
2021/05/30 10:14:25;;;;;;;6.07;5.47;;;;;;;25.39;100.00;99635.51;1760842;79;21666;-60
2021/05/30 10:16:51;;;;;;;5.90;4.50;;;;;;;25.42;100.00;99636.77;1756774;79;21011;-60
2021/05/30 10:19:27;;;;;;;6.83;5.40;;;;;;;25.55;100.00;99627.98;1758369;79;20982;-66
2021/05/30 10:21:55;;;;;;;5.40;4.90;;;;;;;25.81;100.00;99630.95;1727759;81;21044;-65
2021/05/30 10:24:22;;;;;;;4.67;4.17;;;;;;;26.29;100.00;99626.44;1761538;79;21057;-61
2021/05/30 10:27:11;;;;;;;6.00;5.03;;;;;;;26.83;100.00;99628.63;1767323;79;21086;-67
2021/05/30 10:29:38;;;;;;;5.40;4.70;;;;;;;27.14;100.00;99629.19;1766632;79;21633;-67
2021/05/30 10:32:18;;;;;;;5.85;4.75;;;;;;;27.28;100.00;99629.10;1727984;81;21522;-61
2021/05/30 10:35:11;;;;;;;5.42;4.05;;;;;;;27.38;100.00;99626.13;1764507;79;21611;-67
2021/05/30 10:37:49;;;;;;;4.50;4.05;;;;;;;27.62;100.00;99620.37;1766526;79;20998;-61
2021/05/30 10:40:25;;;;;;;4.67;3.87;;;;;;;27.86;100.00;99614.05;1748424;79;21182;-68
2021/05/30 10:43:12;;;;;;;5.70;4.28;;;;;;;28.11;100.00;99616.52;1763392;79;21093;-69
2021/05/30 10:45:57;;;;;;;4.47;4.05;;;;;;;28.46;95.64;99621.10;1766426;79;21452;-66
2021/05/30 10:48:24;;;;;;;6.17;4.22;;;;;;;28.71;90.11;99609.52;1773072;78;20923;-67
2021/05/30 10:53:41;;;;;;;5.50;3.92;;;;;;;29.24;86.31;99614.95;1726327;81;21091;-67
2021/05/30 10:56:37;;;;;;;4.03;3.50;;;;;;;29.55;79.20;99615.21;1707648;82;21610;-68
2021/05/30 10:59:10;;;;;;;6.40;4.28;;;;;;;29.81;73.84;99619.89;1752894;79;21073;-65
2021/05/30 11:01:41;;;;;;;7.22;4.15;;;;;;;30.05;66.56;99614.41;1746537;79;21075;-69
2021/05/30 11:04:28;;;;;;;6.25;3.77;;;;;;;30.11;65.95;99617.67;1698094;83;21068;-69
2021/05/30 11:07:20;;;;;;;4.30;3.85;;;;;;;30.16;67.61;99624.20;1735608;80;21105;-65
2021/05/30 11:09:57;;;;;;;4.60;3.58;;;;;;;30.28;64.81;99628.31;1735536;81;20947;-69
2021/05/30 11:12:49;;;;;;;4.45;3.90;;;;;;;30.30;65.14;99626.84;1735515;81;21212;-69
2021/05/30 11:15:22;;;;;;;3.90;3.47;;;;;;;30.21;64.42;99628.84;1724691;81;21211;-70
2021/05/30 11:17:58;;;;;;;5.40;3.87;;;;;;;29.81;67.44;99632.51;1735048;81;20999;-68
2021/05/30 11:20:40;;;;;;;4.42;4.03;;;;;;;29.47;76.48;99634.81;1733805;81;21081;-69
2021/05/30 11:23:16;;;;;;;5.50;4.30;;;;;;;29.32;78.22;99632.94;1735303;81;21046;-62
2021/05/30 11:25:50;;;;;;;5.55;4.55;;;;;;;29.24;79.68;99633.73;1733347;81;21118;-68
2021/05/30 11:28:24;;;;;;;5.37;3.47;;;;;;;29.32;84.49;99636.16;1729479;81;21496;-68
2021/05/30 11:31:03;;;;;;;6.12;4.25;;;;;;;29.66;78.16;99629.83;1736029;81;20967;-66
2021/05/30 11:33:39;;;;;;;8.45;3.52;;;;;;;29.95;70.48;99633.05;1734860;81;21094;-68
2021/05/30 11:36:04;;;;;;;4.75;3.50;;;;;;;29.90;64.90;99637.84;1736717;81;21532;-68
2021/05/30 11:38:41;;;;;;;4.12;3.72;;;;;;;29.80;64.02;99642.47;1735036;81;20997;-62
2021/05/30 11:41:14;;;;;;;5.03;2.95;;;;;;;29.62;62.62;99634.28;1738225;81;22416;-68